Time;durP1;ratioP1;P1;durP2;ratioP2;P2;SDS_P1;SDS_P2;PMS_P1;PMS_P2;Temp;Humidity;BMP_temperature;BMP_pressure;BME280_temperature;BME280_humidity;BME280_pressure;Samples;Min_cycle;Max_cycle;Signal;HPM_P1;HPM_P2
2022/09/08 04:16:42;;;;;;;3.92;1.98;;;;;;;17.09;100.00;99568.53;5370239;23;20128;-67
2022/09/08 04:19:10;;;;;;;3.30;1.60;;;;;;;17.04;100.00;99581.88;5012955;28;20065;-67
2022/09/08 04:21:35;;;;;;;;;;;;;;;17.02;100.00;99578.59;5012948;28;20042;-67
2022/09/08 04:24:01;;;;;;;2.67;1.50;;;;;;;16.97;100.00;99585.72;5013047;28;20253;-67
2022/09/08 04:26:27;;;;;;;2.42;1.63;;;;;;;16.92;100.00;99583.69;5000946;28;20053;-67
2022/09/08 04:28:52;;;;;;;1.95;1.40;;;;;;;16.90;100.00;99580.44;4993223;28;20049;-67
2022/09/08 04:31:18;;;;;;;3.28;1.80;;;;;;;16.83;100.00;99581.59;4992257;28;20057;-68
2022/09/08 04:33:44;;;;;;;3.58;1.58;;;;;;;16.78;100.00;99593.03;4993180;28;20145;-68
2022/09/08 04:36:16;;;;;;;2.50;1.65;;;;;;;16.72;100.00;99602.00;4993315;28;20057;-68
2022/09/08 04:38:42;;;;;;;4.75;1.25;;;;;;;16.66;100.00;99598.31;4993284;28;20038;-67
2022/09/08 04:41:13;;;;;;;3.03;1.35;;;;;;;16.64;100.00;99605.00;4992939;28;20553;-67
2022/09/08 04:43:40;;;;;;;3.58;2.08;;;;;;;16.61;100.00;99603.56;4993062;28;20046;-68
2022/09/08 04:46:17;;;;;;;3.00;1.27;;;;;;;16.52;100.00;99600.38;4993017;28;20034;-67
2022/09/08 04:48:43;;;;;;;3.25;1.50;;;;;;;16.45;100.00;99607.72;4993405;28;20070;-68
2022/09/08 04:51:11;;;;;;;3.97;1.50;;;;;;;16.37;100.00;99617.97;4992905;28;20034;-67
2022/09/08 04:53:36;;;;;;;;;;;;;;;16.30;100.00;99615.38;4994208;28;20042;-67
2022/09/08 04:56:04;;;;;;;1.40;1.00;;;;;;;16.24;100.00;99611.72;4992948;28;20304;-68
2022/09/08 04:58:32;;;;;;;3.55;1.75;;;;;;;16.11;100.00;99622.63;4992770;28;20110;-68
2022/09/08 05:01:08;;;;;;;1.45;0.70;;;;;;;15.99;100.00;99635.16;4992657;28;20628;-68
2022/09/08 05:03:35;;;;;;;2.97;1.15;;;;;;;15.90;100.00;99658.75;4993065;28;20109;-67
2022/09/08 05:06:13;;;;;;;2.38;1.35;;;;;;;15.90;100.00;99658.75;4992671;28;20045;-68
2022/09/08 05:08:40;;;;;;;2.20;0.95;;;;;;;15.84;100.00;99666.88;4988538;28;20031;-67
2022/09/08 05:11:05;;;;;;;2.55;1.08;;;;;;;15.80;100.00;99657.66;4972956;28;20043;-66
2022/09/08 05:13:31;;;;;;;2.13;1.25;;;;;;;15.77;100.00;99666.94;4973200;28;20066;-67
2022/09/08 05:16:02;;;;;;;2.45;1.10;;;;;;;15.77;100.00;99676.88;4972973;28;20505;-67
2022/09/08 05:18:28;;;;;;;1.30;0.85;;;;;;;15.71;100.00;99665.16;4973285;28;20039;-66
2022/09/08 05:20:54;;;;;;;1.70;0.82;;;;;;;15.71;100.00;99662.47;4972979;28;20113;-67
2022/09/08 05:23:20;;;;;;;3.28;1.52;;;;;;;15.67;100.00;99672.00;4973182;28;20039;-67
2022/09/08 05:25:45;;;;;;;2.35;0.93;;;;;;;15.71;100.00;99670.50;4972977;28;20039;-67
2022/09/08 05:28:10;;;;;;;1.80;1.00;;;;;;;15.67;100.00;99669.34;4973133;28;20038;-68
2022/09/08 05:30:39;;;;;;;2.55;0.70;;;;;;;15.67;100.00;99672.84;4971605;28;20043;-66
2022/09/08 05:33:05;;;;;;;2.92;0.90;;;;;;;15.68;100.00;99681.72;4972969;28;20390;-67
2022/09/08 05:35:30;;;;;;;1.75;0.82;;;;;;;15.66;100.00;99683.81;4973037;28;20038;-66
2022/09/08 05:37:58;;;;;;;1.55;0.98;;;;;;;15.64;100.00;99696.59;4972936;28;20042;-66
2022/09/08 05:40:23;;;;;;;1.98;0.82;;;;;;;15.67;100.00;99693.50;4972704;28;20043;-66
2022/09/08 05:42:49;;;;;;;1.73;1.08;;;;;;;15.66;100.00;99697.22;4972863;28;20045;-67
2022/09/08 05:45:15;;;;;;;4.07;1.00;;;;;;;15.68;100.00;99701.31;4972786;28;20083;-65
2022/09/08 05:47:40;;;;;;;1.85;0.98;;;;;;;15.71;100.00;99705.41;4972908;28;20476;-66
2022/09/08 05:50:06;;;;;;;0.98;0.82;;;;;;;15.73;100.00;99708.72;4972624;28;20038;-67
2022/09/08 05:52:31;;;;;;;2.25;0.82;;;;;;;15.69;100.00;99715.56;4972687;28;20047;-67
2022/09/08 05:54:57;;;;;;;3.25;1.48;;;;;;;15.68;100.00;99711.25;4972918;28;20045;-66
2022/09/08 05:57:22;;;;;;;2.28;1.00;;;;;;;15.72;100.00;99724.03;4972798;28;20042;-67
2022/09/08 05:59:47;;;;;;;2.05;1.10;;;;;;;15.69;100.00;99702.97;4972722;28;20045;-67
2022/09/08 06:02:13;;;;;;;2.80;1.40;;;;;;;15.73;100.00;99716.78;4972535;28;20501;-66
2022/09/08 06:04:38;;;;;;;4.72;1.35;;;;;;;15.71;100.00;99721.53;4976781;28;20066;-67
2022/09/08 06:07:04;;;;;;;2.35;1.02;;;;;;;15.70;100.00;99719.88;4976607;28;20351;-67
2022/09/08 06:09:29;;;;;;;2.30;1.00;;;;;;;15.74;100.00;99718.41;4983212;28;20519;-66
2022/09/08 06:11:54;;;;;;;2.83;1.10;;;;;;;15.73;100.00;99719.47;4993824;28;20397;-67
2022/09/08 06:14:20;;;;;;;1.77;1.02;;;;;;;15.72;100.00;99709.78;4984186;28;20030;-67
2022/09/08 06:16:45;;;;;;;1.23;1.05;;;;;;;15.73;100.00;99724.84;4985489;28;20034;-67
2022/09/08 06:19:11;;;;;;;0.90;0.70;;;;;;;15.76;100.00;99724.38;4984747;28;20615;-67
2022/09/08 06:21:37;;;;;;;2.67;1.10;;;;;;;15.74;100.00;99727.28;4985423;28;20512;-67
2022/09/08 06:24:05;;;;;;;1.67;0.75;;;;;;;15.77;100.00;99730.56;4984930;28;20044;-66
2022/09/08 06:26:37;;;;;;;1.30;0.75;;;;;;;15.75;100.00;99725.44;4986389;28;20038;-67
2022/09/08 06:29:13;;;;;;;1.65;1.00;;;;;;;15.81;100.00;99727.25;4984023;28;20039;-67
2022/09/08 06:31:47;;;;;;;2.53;1.10;;;;;;;15.76;100.00;99737.81;4984480;28;20053;-67
2022/09/08 06:34:21;;;;;;;1.80;1.00;;;;;;;15.77;100.00;99742.13;4986867;28;20101;-67
2022/09/08 06:36:59;;;;;;;1.40;0.90;;;;;;;15.79;100.00;99745.44;4986116;28;20069;-68
2022/09/08 06:39:34;;;;;;;3.47;1.05;;;;;;;15.84;100.00;99744.75;4986461;28;20038;-68
2022/09/08 06:42:13;;;;;;;1.38;0.90;;;;;;;15.79;100.00;99741.94;4985005;28;20030;-67
2022/09/08 06:44:41;;;;;;;3.60;1.30;;;;;;;15.80;100.00;99730.97;4988910;28;20096;-67
2022/09/08 06:47:19;;;;;;;2.55;1.10;;;;;;;15.92;100.00;99739.97;4995240;28;20045;-67
2022/09/08 06:49:45;;;;;;;2.30;1.10;;;;;;;15.94;100.00;99742.41;4994085;28;20488;-68
2022/09/08 06:52:50;;;;;;;4.05;0.98;;;;;;;15.98;100.00;99736.41;4994782;28;20129;-67
2022/09/08 06:55:30;;;;;;;2.90;1.10;;;;;;;16.01;100.00;99733.25;4995111;28;20085;-67
2022/09/08 06:58:14;;;;;;;1.05;0.90;;;;;;;16.07;100.00;99736.09;4995051;28;20038;-66
2022/09/08 07:00:53;;;;;;;1.00;0.82;;;;;;;16.06;100.00;99745.22;4994849;28;20057;-67
2022/09/08 07:03:50;;;;;;;1.23;0.90;;;;;;;16.09;100.00;99750.13;4995106;28;20030;-67
2022/09/08 07:06:16;;;;;;;;;;;;;;;16.12;100.00;99745.16;4995335;28;20110;-67
2022/09/08 07:08:59;;;;;;;1.58;0.73;;;;;;;16.16;100.00;99740.97;4994896;28;19916;-66
2022/09/08 07:11:25;;;;;;;1.05;0.90;;;;;;;16.29;100.00;99754.25;4994698;28;20034;-68
2022/09/08 07:13:50;;;;;;;1.38;1.10;;;;;;;16.40;100.00;99752.72;4994778;28;20031;-67
2022/09/08 07:16:37;;;;;;;2.78;1.20;;;;;;;16.53;100.00;99754.44;4994638;28;20038;-67
2022/09/08 07:19:17;;;;;;;1.88;0.93;;;;;;;16.61;100.00;99758.69;4994811;28;20092;-67
2022/09/08 07:22:14;;;;;;;3.83;1.30;;;;;;;16.67;100.00;99755.09;4994441;28;20042;-68
2022/09/08 07:24:41;;;;;;;2.10;1.10;;;;;;;16.69;100.00;99761.06;4994628;28;20088;-67
2022/09/08 07:27:12;;;;;;;1.83;1.20;;;;;;;16.61;100.00;99758.69;4994517;28;20045;-67
2022/09/08 07:30:00;;;;;;;3.22;1.35;;;;;;;16.67;100.00;99768.53;4994612;28;20089;-67
2022/09/08 07:32:30;;;;;;;2.58;1.23;;;;;;;16.68;100.00;99776.38;4994477;28;20042;-68
2022/09/08 07:35:04;;;;;;;1.63;1.20;;;;;;;16.66;100.00;99778.47;4994447;28;20043;-68
2022/09/08 07:37:51;;;;;;;1.33;0.95;;;;;;;16.71;100.00;99783.22;4994422;28;20047;-68
2022/09/08 07:40:21;;;;;;;3.75;1.20;;;;;;;16.68;100.00;99776.38;4994111;28;20038;-68
2022/09/08 07:42:55;;;;;;;0.63;0.63;;;;;;;16.74;100.00;99788.97;4994296;28;20544;-68
2022/09/08 07:45:44;;;;;;;1.00;0.80;;;;;;;16.74;100.00;99797.03;4994174;28;20030;-67
2022/09/08 07:48:48;;;;;;;0.98;0.70;;;;;;;16.75;100.00;99792.47;4994434;28;20374;-68
2022/09/08 07:51:18;;;;;;;2.47;1.00;;;;;;;16.71;100.00;99799.38;4993642;28;20047;-67
2022/09/08 07:54:03;;;;;;;4.00;0.93;;;;;;;16.72;100.00;99809.06;4993821;28;20366;-67
2022/09/08 07:56:38;;;;;;;1.95;0.90;;;;;;;16.72;100.00;99803.69;4994335;28;20045;-67
2022/09/08 07:59:23;;;;;;;1.85;0.88;;;;;;;16.72;100.00;99803.69;4994119;28;20453;-68
2022/09/08 08:02:19;;;;;;;1.77;0.85;;;;;;;16.76;100.00;99811.09;4993748;28;20106;-68
2022/09/08 08:05:14;;;;;;;1.00;0.68;;;;;;;16.75;100.00;99814.00;4993978;28;20068;-67
2022/09/08 08:07:57;;;;;;;5.65;1.10;;;;;;;16.75;100.00;99814.81;4990798;28;20050;-66
2022/09/08 08:10:27;;;;;;;1.83;0.70;;;;;;;16.78;100.00;99821.63;4993617;28;20122;-66
2022/09/08 08:13:00;;;;;;;1.15;0.73;;;;;;;16.79;100.00;99820.56;4993616;28;20408;-67
2022/09/08 08:15:51;;;;;;;1.38;0.70;;;;;;;16.88;100.00;99819.22;4993618;28;20129;-68
2022/09/08 08:18:59;;;;;;;1.48;0.73;;;;;;;16.91;100.00;99824.16;4993700;28;20038;-67
2022/09/08 08:21:33;;;;;;;1.08;0.63;;;;;;;16.90;100.00;99827.09;4985923;28;20378;-67
2022/09/08 08:24:34;;;;;;;1.38;0.73;;;;;;;16.96;99.97;99821.63;4993556;28;20034;-67
2022/09/08 08:27:27;;;;;;;2.80;0.77;;;;;;;17.06;100.00;99824.59;4993478;28;20493;-65
2022/09/08 08:30:04;;;;;;;1.27;0.77;;;;;;;17.16;98.28;99828.63;4993345;28;20467;-69
2022/09/08 08:32:36;;;;;;;1.33;0.88;;;;;;;17.25;98.85;99827.28;4993167;28;20129;-67
2022/09/08 08:35:13;;;;;;;2.38;0.70;;;;;;;17.31;98.90;99837.13;4993304;28;20034;-66
2022/09/08 08:37:41;;;;;;;2.22;0.70;;;;;;;17.33;98.05;99827.78;4993354;28;20042;-67
2022/09/08 08:40:26;;;;;;;1.35;0.82;;;;;;;17.43;98.57;99832.63;4993004;28;20045;-70
2022/09/08 08:43:18;;;;;;;1.20;0.65;;;;;;;17.53;96.85;99827.50;4993236;28;20026;-66
2022/09/08 08:46:20;;;;;;;0.98;0.70;;;;;;;17.61;95.14;99829.06;4989867;28;20441;-66
2022/09/08 08:49:04;;;;;;;1.17;0.63;;;;;;;17.72;96.57;99827.47;4993301;28;20401;-66
2022/09/08 08:52:04;;;;;;;1.15;0.77;;;;;;;17.85;93.21;99838.06;4992725;28;20061;-67
2022/09/08 08:54:57;;;;;;;1.17;0.65;;;;;;;17.92;92.91;99838.78;4993032;28;20512;-66
2022/09/08 08:57:25;;;;;;;1.70;0.88;;;;;;;17.99;91.90;99842.19;4993005;28;20030;-65
2022/09/08 09:00:15;;;;;;;1.48;0.85;;;;;;;18.09;92.77;99837.06;4992880;28;20417;-66
2022/09/08 09:03:05;;;;;;;1.50;1.00;;;;;;;18.21;92.35;99837.06;4992789;28;20038;-65
2022/09/08 09:05:51;;;;;;;1.75;0.80;;;;;;;18.41;92.56;99844.81;4992663;28;20034;-65
2022/09/08 09:08:24;;;;;;;2.90;0.63;;;;;;;18.57;92.37;99843.28;4992603;28;20030;-67
2022/09/08 09:11:04;;;;;;;1.75;0.70;;;;;;;18.77;92.54;99840.25;4992379;28;20532;-67
2022/09/08 09:13:35;;;;;;;2.97;0.73;;;;;;;18.90;87.45;99848.09;4992432;28;20038;-67
2022/09/08 09:16:39;;;;;;;0.80;0.63;;;;;;;19.15;86.84;99845.94;4992341;28;20038;-66
2022/09/08 09:19:31;;;;;;;1.75;0.90;;;;;;;19.46;82.58;99850.06;4954547;28;20152;-66
2022/09/08 09:22:12;;;;;;;0.50;0.40;;;;;;;19.63;81.63;99852.03;4970376;28;20039;-67
2022/09/08 09:24:56;;;;;;;0.60;0.30;;;;;;;19.84;80.93;99848.63;4986913;28;20057;-66
2022/09/08 09:27:42;;;;;;;2.17;0.63;;;;;;;19.82;78.76;99839.94;4992155;28;20039;-66
2022/09/08 09:30:22;;;;;;;1.23;0.52;;;;;;;19.94;77.89;99847.97;4992163;28;20035;-67
2022/09/08 09:33:03;;;;;;;0.82;0.50;;;;;;;19.90;75.82;99836.03;4990841;28;20038;-67
2022/09/08 09:35:43;;;;;;;1.08;0.60;;;;;;;19.76;76.52;99839.03;4992105;28;20482;-65
2022/09/08 09:38:17;;;;;;;3.00;0.85;;;;;;;19.59;78.11;99837.38;4991549;28;20038;-65
2022/09/08 09:41:25;;;;;;;1.48;0.50;;;;;;;19.52;76.10;99849.09;4991859;28;20138;-64
2022/09/08 09:44:24;;;;;;;0.60;0.47;;;;;;;19.53;76.82;99839.13;4991557;28;20046;-65
2022/09/08 09:47:15;;;;;;;0.80;0.45;;;;;;;19.57;78.03;99832.19;4991989;28;20034;-65
2022/09/08 09:49:40;;;;;;;3.05;0.50;;;;;;;20.08;78.33;99833.06;4992032;28;20485;-65
2022/09/08 09:52:17;;;;;;;0.55;0.50;;;;;;;20.52;75.00;99833.25;4991642;28;20034;-66
2022/09/08 09:55:18;;;;;;;0.77;0.40;;;;;;;20.65;74.77;99838.31;4991969;28;20382;-65
2022/09/08 09:58:02;;;;;;;4.57;0.55;;;;;;;20.73;72.70;99835.16;4983107;28;20417;-67
2022/09/08 10:00:45;;;;;;;0.90;0.73;;;;;;;21.12;73.61;99835.13;4991668;28;20132;-66
2022/09/08 10:03:16;;;;;;;0.40;0.38;;;;;;;21.12;70.81;99827.81;4991943;28;20036;-66
2022/09/08 10:06:13;;;;;;;1.33;0.68;;;;;;;21.22;69.69;99831.75;4991811;28;20048;-66
2022/09/08 10:08:54;;;;;;;;;;;;;;;21.27;68.91;99827.22;4992338;28;20042;-66
2022/09/08 10:11:55;;;;;;;0.45;0.38;;;;;;;21.17;72.93;99828.97;4991472;28;19913;-65
2022/09/08 10:14:30;;;;;;;1.17;0.70;;;;;;;21.32;69.28;99821.88;4991775;28;20546;-65
2022/09/08 10:17:25;;;;;;;0.47;0.30;;;;;;;21.43;73.79;99827.41;4991754;28;20039;-66
2022/09/08 10:20:07;;;;;;;1.52;0.57;;;;;;;21.49;72.68;99826.38;4991679;28;20162;-66
2022/09/08 10:22:57;;;;;;;0.50;0.50;;;;;;;21.45;69.68;99822.53;4991664;28;20033;-67
2022/09/08 10:25:46;;;;;;;2.50;0.60;;;;;;;21.27;66.46;99829.91;4991737;28;20040;-64
2022/09/08 10:28:50;;;;;;;1.73;0.60;;;;;;;21.48;71.30;99825.56;4991724;28;20126;-65
2022/09/08 10:31:43;;;;;;;1.35;0.63;;;;;;;21.48;65.25;99828.28;4993534;28;20062;-67
2022/09/08 10:34:09;;;;;;;0.70;0.50;;;;;;;21.65;62.84;99823.59;4993206;28;20038;-67
2022/09/08 10:36:37;;;;;;;1.60;0.60;;;;;;;21.25;64.84;99829.31;4993800;28;20482;-68
2022/09/08 10:39:34;;;;;;;3.00;0.93;;;;;;;20.95;64.82;99828.97;4994549;28;20120;-68
2022/09/08 10:42:22;;;;;;;3.00;0.50;;;;;;;20.66;67.06;99841.84;4995290;28;20038;-67
2022/09/08 10:45:23;;;;;;;0.80;0.55;;;;;;;20.49;65.85;99840.00;4994636;28;20513;-67
2022/09/08 10:48:19;;;;;;;0.77;0.60;;;;;;;20.42;66.32;99838.50;4996276;28;20073;-68
2022/09/08 10:50:52;;;;;;;0.90;0.60;;;;;;;20.39;66.73;99842.50;4998435;28;20041;-67
2022/09/08 10:53:42;;;;;;;2.58;0.70;;;;;;;20.43;67.16;99832.00;4996876;28;20104;-67
2022/09/08 10:56:13;;;;;;;1.75;0.55;;;;;;;20.50;68.59;99838.09;4998588;28;20402;-67
2022/09/08 10:58:49;;;;;;;0.63;0.40;;;;;;;20.58;67.92;99840.38;4999572;28;20082;-67
2022/09/08 11:01:31;;;;;;;1.42;0.73;;;;;;;20.62;70.02;99838.00;4998703;28;20041;-66
2022/09/08 11:04:17;;;;;;;1.67;0.45;;;;;;;21.46;64.71;99835.03;4998650;28;20117;-68
2022/09/08 11:07:03;;;;;;;1.58;0.50;;;;;;;22.56;61.56;99835.44;4997502;28;20092;-67
2022/09/08 11:09:43;;;;;;;1.38;0.40;;;;;;;23.73;59.17;99830.53;4996384;28;20038;-67
2022/09/08 11:12:24;;;;;;;2.33;0.80;;;;;;;24.68;56.02;99827.25;4996941;28;20180;-67
2022/09/08 11:15:41;;;;;;;1.13;0.55;;;;;;;25.75;49.42;99826.78;4997183;28;20035;-67
2022/09/08 11:18:46;;;;;;;2.00;0.52;;;;;;;26.58;49.60;99823.09;4987037;28;20053;-67
2022/09/08 11:21:27;;;;;;;3.83;0.50;;;;;;;26.85;48.38;99825.25;4988793;28;20057;-67
2022/09/08 11:24:17;;;;;;;4.95;0.45;;;;;;;27.08;45.26;99829.13;4997132;28;20134;-68
2022/09/08 11:27:14;;;;;;;0.75;0.50;;;;;;;27.31;43.95;99825.53;4997723;28;20046;-67
2022/09/08 11:29:40;;;;;;;1.05;0.60;;;;;;;26.37;44.56;99819.75;4998599;28;20034;-66
2022/09/08 11:32:29;;;;;;;1.10;0.40;;;;;;;26.45;46.37;99816.41;4997200;28;20042;-67
2022/09/08 11:35:29;;;;;;;1.85;0.57;;;;;;;26.86;43.95;99816.75;4997788;28;20049;-68
2022/09/08 11:37:58;;;;;;;0.85;0.50;;;;;;;26.87;43.67;99812.13;4996141;28;20101;-69
2022/09/08 11:40:47;;;;;;;2.00;0.60;;;;;;;27.42;42.74;99812.53;4996662;28;20049;-68
2022/09/08 11:43:34;;;;;;;0.88;0.50;;;;;;;27.37;42.11;99818.06;4997664;28;20034;-68
2022/09/08 11:46:05;;;;;;;3.15;0.68;;;;;;;27.34;41.32;99811.28;4996161;28;20489;-68
2022/09/08 11:48:56;;;;;;;1.25;0.50;;;;;;;27.77;41.51;99811.22;4997294;28;20054;-68
2022/09/08 11:51:50;;;;;;;1.85;0.57;;;;;;;27.73;42.48;99813.75;4991182;28;20426;-69
2022/09/08 11:54:36;;;;;;;1.38;0.43;;;;;;;28.27;41.49;99806.81;4984876;28;20027;-69
2022/09/08 11:57:34;;;;;;;1.02;0.50;;;;;;;27.38;40.66;99811.50;4987389;28;20117;-68
2022/09/08 12:00:22;;;;;;;0.75;0.30;;;;;;;26.81;44.89;99808.66;4984395;28;20517;-68
2022/09/08 12:03:41;;;;;;;0.93;0.70;;;;;;;27.12;41.93;99806.34;4989026;28;20030;-68
2022/09/08 12:06:25;;;;;;;1.20;0.60;;;;;;;27.58;41.83;99801.09;4916036;29;20154;-68
2022/09/08 12:09:11;;;;;;;1.13;0.40;;;;;;;26.37;42.97;99808.81;4979328;28;20501;-68
2022/09/08 12:12:04;;;;;;;1.63;0.70;;;;;;;25.65;44.53;99814.03;4986110;28;20446;-68
2022/09/08 12:14:41;;;;;;;0.82;0.40;;;;;;;24.66;47.87;99807.66;4986238;28;20109;-68
2022/09/08 12:17:15;;;;;;;0.52;0.50;;;;;;;24.21;49.38;99806.63;4986602;28;20523;-68
2022/09/08 12:20:03;;;;;;;0.43;0.32;;;;;;;25.23;47.80;99807.16;4988017;28;20509;-68
2022/09/08 12:23:05;;;;;;;3.42;0.60;;;;;;;25.16;48.62;99806.66;4989568;28;20042;-67
2022/09/08 12:25:42;;;;;;;0.50;0.30;;;;;;;25.35;48.28;99810.38;4985711;28;20129;-68
2022/09/08 12:28:33;;;;;;;0.17;0.15;;;;;;;24.83;50.21;99808.94;4986858;28;20038;-68
2022/09/08 12:31:27;;;;;;;1.02;0.60;;;;;;;24.66;50.54;99797.56;4987597;28;20038;-66
2022/09/08 12:34:17;;;;;;;0.60;0.32;;;;;;;24.67;49.39;99798.41;4985298;28;20552;-65
2022/09/08 12:36:49;;;;;;;1.60;0.28;;;;;;;24.35;51.63;99796.81;4983578;28;20050;-65
2022/09/08 12:39:36;;;;;;;1.48;0.32;;;;;;;24.16;50.83;99793.00;4984181;28;20089;-65
2022/09/08 12:42:12;;;;;;;;;;;;;;;24.23;50.62;99798.97;4987102;28;20027;-67
2022/09/08 12:44:46;;;;;;;0.65;0.45;;;;;;;24.06;52.71;99793.81;4983342;28;19922;-66
2022/09/08 12:47:36;;;;;;;1.40;0.50;;;;;;;23.90;54.85;99800.38;4984470;28;20053;-66
2022/09/08 12:50:39;;;;;;;0.40;0.25;;;;;;;23.28;59.95;99808.41;4986189;28;20042;-67
2022/09/08 12:53:12;;;;;;;0.63;0.50;;;;;;;23.31;62.03;99819.81;4987399;28;20366;-68
2022/09/08 12:55:53;;;;;;;0.68;0.38;;;;;;;23.77;61.36;99799.00;4981719;28;20046;-67
2022/09/08 12:58:23;;;;;;;2.00;0.47;;;;;;;24.91;55.60;99793.97;4987874;28;20042;-67
2022/09/08 13:01:14;;;;;;;1.00;0.38;;;;;;;25.86;51.54;99796.44;4987378;28;20053;-68
2022/09/08 13:03:43;;;;;;;0.60;0.50;;;;;;;26.38;49.66;99789.41;4987998;28;20127;-68
2022/09/08 13:06:46;;;;;;;0.63;0.43;;;;;;;27.22;46.65;99787.09;4987268;28;20044;-68
2022/09/08 13:09:26;;;;;;;1.63;0.50;;;;;;;27.46;46.67;99787.03;4984601;28;20031;-69
2022/09/08 13:12:20;;;;;;;0.88;0.30;;;;;;;27.98;45.13;99785.16;4985083;28;20109;-68
2022/09/08 13:15:18;;;;;;;0.25;0.22;;;;;;;28.56;44.43;99784.69;4984908;28;20039;-68
2022/09/08 13:18:08;;;;;;;2.63;0.50;;;;;;;28.45;43.40;99786.00;4986844;28;20120;-67
2022/09/08 13:20:51;;;;;;;0.60;0.50;;;;;;;28.65;43.07;99793.81;4982847;28;20030;-69
2022/09/08 13:23:33;;;;;;;0.43;0.35;;;;;;;29.02;41.61;99792.00;4985540;28;20105;-69
2022/09/08 13:26:07;;;;;;;1.05;0.30;;;;;;;28.61;41.55;99790.03;4985093;28;20034;-66
2022/09/08 13:28:46;;;;;;;0.50;0.40;;;;;;;29.15;40.29;99799.41;4988019;28;20030;-68
2022/09/08 13:31:38;;;;;;;0.43;0.30;;;;;;;29.27;40.87;99790.63;4981933;28;20038;-68
2022/09/08 13:34:25;;;;;;;0.50;0.50;;;;;;;28.61;40.97;99772.78;4982625;28;20093;-67
2022/09/08 13:37:11;;;;;;;1.63;0.57;;;;;;;27.82;42.73;99784.59;4983386;28;20035;-68
2022/09/08 13:39:55;;;;;;;0.93;0.68;;;;;;;27.65;44.81;99781.56;4977747;28;20039;-68
2022/09/08 13:42:33;;;;;;;0.55;0.40;;;;;;;26.35;45.06;99776.34;4973860;28;20477;-68
2022/09/08 13:45:16;;;;;;;0.45;0.45;;;;;;;25.71;46.66;99778.25;4975422;28;20042;-67
2022/09/08 13:48:10;;;;;;;1.77;0.50;;;;;;;25.19;49.49;99783.50;4975575;28;20046;-68
2022/09/08 13:51:14;;;;;;;1.67;0.47;;;;;;;25.15;51.45;99784.03;4975334;28;20070;-68
2022/09/08 13:53:58;;;;;;;0.45;0.30;;;;;;;24.76;52.39;99783.91;4974678;28;20057;-67
2022/09/08 13:56:58;;;;;;;0.45;0.30;;;;;;;24.41;52.79;99784.84;4976166;28;20043;-68
2022/09/08 13:59:51;;;;;;;0.50;0.40;;;;;;;24.13;53.30;99782.69;4974817;28;20141;-68
2022/09/08 14:02:31;;;;;;;0.40;0.30;;;;;;;23.88;55.84;99775.34;4976724;28;20614;-66
2022/09/08 14:05:20;;;;;;;1.60;0.85;;;;;;;23.94;54.09;99776.97;4974843;28;20031;-67
2022/09/08 14:07:52;;;;;;;0.75;0.55;;;;;;;23.92;55.32;99771.78;4964414;28;20348;-67
2022/09/08 14:10:40;;;;;;;1.50;0.38;;;;;;;23.94;54.12;99769.63;4974619;28;20054;-68
2022/09/08 14:13:15;;;;;;;1.30;0.60;;;;;;;23.88;53.80;99765.28;4965181;28;20448;-68
2022/09/08 14:15:46;;;;;;;0.63;0.43;;;;;;;23.61;54.86;99764.72;4975904;28;20050;-68
2022/09/08 14:18:28;;;;;;;2.90;0.55;;;;;;;23.43;55.07;99769.56;4975065;28;20047;-67
2022/09/08 14:21:23;;;;;;;0.77;0.47;;;;;;;23.41;56.59;99771.75;4973926;28;20588;-68
2022/09/08 14:23:58;;;;;;;0.47;0.28;;;;;;;23.18;52.93;99767.59;4978287;28;20398;-67
2022/09/08 14:26:32;;;;;;;1.30;0.50;;;;;;;23.15;52.92;99765.44;4978571;28;20053;-67
2022/09/08 14:29:38;;;;;;;1.08;0.80;;;;;;;23.04;51.50;99768.38;4977238;28;20102;-65
2022/09/08 14:32:41;;;;;;;0.80;0.50;;;;;;;23.10;50.89;99770.03;4976553;28;20129;-67
2022/09/08 14:35:38;;;;;;;0.70;0.60;;;;;;;22.93;49.34;99760.19;4976871;28;20035;-68
2022/09/08 14:38:29;;;;;;;0.38;0.30;;;;;;;22.90;47.11;99752.59;4977377;28;20043;-66
2022/09/08 14:41:22;;;;;;;2.17;0.47;;;;;;;22.80;47.03;99755.22;4977406;28;20105;-68
2022/09/08 14:43:47;;;;;;;0.63;0.30;;;;;;;22.91;48.25;99756.94;4977676;28;20453;-66
2022/09/08 14:46:50;;;;;;;4.00;0.60;;;;;;;22.98;47.93;99753.97;4976707;28;20109;-67
2022/09/08 14:49:45;;;;;;;2.05;0.52;;;;;;;23.02;47.63;99747.75;4977752;28;20038;-66
2022/09/08 14:52:24;;;;;;;3.33;0.73;;;;;;;23.06;46.88;99742.59;4975861;28;20042;-68
2022/09/08 14:55:15;;;;;;;1.10;0.43;;;;;;;23.22;46.80;99740.75;4976503;28;20078;-66
2022/09/08 14:57:49;;;;;;;2.05;1.27;;;;;;;23.23;47.44;99736.94;4978019;28;20041;-68
2022/09/08 15:00:20;;;;;;;0.85;0.47;;;;;;;23.12;44.97;99737.97;4978336;28;20130;-67
2022/09/08 15:02:53;;;;;;;1.13;0.68;;;;;;;22.97;44.92;99728.72;4975946;28;20039;-67
2022/09/08 15:05:32;;;;;;;0.40;0.30;;;;;;;22.88;45.67;99722.16;4976097;28;20113;-67
2022/09/08 15:08:21;;;;;;;0.75;0.57;;;;;;;22.80;45.89;99733.50;4976822;28;20110;-67
2022/09/08 15:11:20;;;;;;;0.40;0.40;;;;;;;22.71;47.23;99729.69;4966956;28;20054;-67
2022/09/08 15:13:59;;;;;;;3.00;0.55;;;;;;;22.64;47.27;99729.09;4975863;28;20729;-67
2022/09/08 15:16:29;;;;;;;0.68;0.47;;;;;;;22.65;47.26;99733.44;4975789;28;20026;-67
2022/09/08 15:19:05;;;;;;;1.67;0.45;;;;;;;22.60;47.22;99733.44;4975652;28;20105;-68
2022/09/08 15:21:50;;;;;;;0.10;0.10;;;;;;;22.58;46.75;99741.03;4976058;28;20053;-66
2022/09/08 15:24:30;;;;;;;0.85;0.43;;;;;;;22.47;46.75;99745.56;4977034;28;20160;-67
2022/09/08 15:27:19;;;;;;;0.55;0.30;;;;;;;22.39;47.49;99746.91;4976558;28;20045;-65
2022/09/08 15:30:17;;;;;;;1.55;0.47;;;;;;;22.43;48.16;99748.00;4976695;28;20182;-67
2022/09/08 15:32:49;;;;;;;0.20;0.20;;;;;;;22.35;48.15;99751.19;4976131;28;20054;-67
2022/09/08 15:35:39;;;;;;;1.50;0.40;;;;;;;22.35;48.23;99751.19;4975373;28;20049;-66
2022/09/08 15:38:16;;;;;;;0.80;0.57;;;;;;;22.34;48.59;99746.03;4976164;28;20039;-65
2022/09/08 15:41:04;;;;;;;0.88;0.55;;;;;;;22.19;49.17;99749.50;4974806;28;20400;-67
2022/09/08 15:43:45;;;;;;;2.70;0.63;;;;;;;22.17;48.11;99751.66;4975539;28;20045;-67
2022/09/08 15:46:19;;;;;;;0.63;0.35;;;;;;;22.08;48.79;99755.88;4976136;28;20042;-67
2022/09/08 15:49:15;;;;;;;1.30;0.40;;;;;;;22.06;49.17;99758.03;4976667;28;20038;-68
2022/09/08 15:51:58;;;;;;;0.98;0.50;;;;;;;22.01;49.35;99766.94;4975693;28;20034;-68
2022/09/08 15:54:30;;;;;;;0.15;0.15;;;;;;;22.00;49.67;99775.34;4975008;28;20034;-67
2022/09/08 15:57:18;;;;;;;0.63;0.40;;;;;;;21.93;50.29;99784.53;4975297;28;20035;-67
2022/09/08 16:00:23;;;;;;;0.93;0.52;;;;;;;21.87;51.14;99777.41;4977556;28;20491;-68
2022/09/08 16:02:57;;;;;;;0.20;0.20;;;;;;;21.80;52.12;99779.53;4976140;28;20031;-66
2022/09/08 16:05:30;;;;;;;1.55;0.75;;;;;;;21.65;52.56;99777.50;4974840;28;20122;-68
2022/09/08 16:08:18;;;;;;;0.52;0.30;;;;;;;21.65;53.62;99780.22;4974453;28;20081;-68
2022/09/08 16:11:20;;;;;;;0.57;0.45;;;;;;;21.62;54.26;99779.91;4946425;28;20054;-68
2022/09/08 16:13:49;;;;;;;0.45;0.30;;;;;;;21.54;55.94;99783.09;4974470;28;20078;-68
2022/09/08 16:16:39;;;;;;;1.02;0.60;;;;;;;21.54;56.37;99791.22;4974350;28;20457;-69
2022/09/08 16:19:20;;;;;;;0.50;0.50;;;;;;;21.32;57.76;99799.38;4975676;28;20039;-67
2022/09/08 16:22:17;;;;;;;0.47;0.47;;;;;;;21.29;58.79;99808.84;4974441;28;20108;-66
2022/09/08 16:24:49;;;;;;;1.00;0.52;;;;;;;21.14;60.70;99805.94;4975045;28;20042;-67
2022/09/08 16:27:20;;;;;;;1.52;0.30;;;;;;;21.07;61.31;99810.72;4975321;28;20051;-67
2022/09/08 16:29:58;;;;;;;0.88;0.57;;;;;;;20.92;63.34;99811.34;4975227;28;20034;-67
2022/09/08 16:32:31;;;;;;;1.20;0.47;;;;;;;20.83;63.22;99813.66;4975066;28;20445;-66
2022/09/08 16:35:13;;;;;;;1.48;0.60;;;;;;;20.78;63.32;99813.59;4974948;28;20121;-66
2022/09/08 16:37:42;;;;;;;0.65;0.30;;;;;;;20.56;64.41;99801.94;4974187;28;20506;-67
2022/09/08 16:40:09;;;;;;;3.13;0.50;;;;;;;20.56;64.47;99802.75;4974085;28;20026;-65
2022/09/08 16:42:43;;;;;;;5.43;0.70;;;;;;;20.55;64.43;99800.31;4975244;28;20478;-66
2022/09/08 16:45:26;;;;;;;0.85;0.47;;;;;;;20.53;65.04;99794.31;4974243;28;20094;-66
2022/09/08 16:48:00;;;;;;;0.45;0.40;;;;;;;20.57;65.38;99787.34;4974611;28;20034;-67
2022/09/08 16:50:32;;;;;;;1.08;0.50;;;;;;;20.62;65.54;99794.72;4972650;28;20503;-67